Time;durP1;ratioP1;P1;durP2;ratioP2;P2;SDS_P1;SDS_P2;PMS_P1;PMS_P2;Temp;Humidity;BMP_temperature;BMP_pressure;BME280_temperature;BME280_humidity;BME280_pressure;Samples;Min_cycle;Max_cycle;Signal;HPM_P1;HPM_P2
2022/03/08 00:01:24;;;;;;;;;32.00;30.75;;;;;4.53;43.48;101165.84;5059697;28;45799;-59
2022/03/08 00:03:49;;;;;;;;;45.25;41.75;;;;;4.55;43.86;101168.44;5061054;28;45387;-60
2022/03/08 00:06:15;;;;;;;;;47.75;37.25;;;;;4.48;43.62;101162.44;5063272;28;45760;-59
2022/03/08 00:08:42;;;;;;;;;42.25;36.50;;;;;4.48;43.88;101157.19;5046675;28;45381;-59
2022/03/08 00:11:08;;;;;;;;;46.50;36.50;;;;;4.37;43.90;101138.97;5047064;28;45736;-59
2022/03/08 00:13:33;;;;;;;;;44.00;28.50;;;;;4.49;43.48;101164.16;5047652;28;45227;-59
2022/03/08 00:15:59;;;;;;;;;44.25;35.75;;;;;4.40;44.23;101144.16;5052012;28;46917;-60
2022/03/08 00:18:24;;;;;;;;;45.25;39.75;;;;;4.39;44.19;101147.69;5067938;28;45397;-60
2022/03/08 00:20:50;;;;;;;;;43.25;38.50;;;;;4.42;44.47;101158.16;5070355;28;45429;-60
2022/03/08 00:23:15;;;;;;;;;53.75;40.50;;;;;4.42;43.74;101154.66;5076351;28;45013;-61
2022/03/08 00:25:40;;;;;;;;;29.25;26.75;;;;;4.41;44.61;101158.19;5075771;28;46413;-60
2022/03/08 00:28:06;;;;;;;;;43.75;40.25;;;;;4.40;44.41;101156.47;5066796;28;45353;-59
2022/03/08 00:30:32;;;;;;;;;35.00;33.50;;;;;4.36;44.42;101147.78;5063691;28;45602;-60
2022/03/08 00:32:57;;;;;;;;;41.75;34.00;;;;;4.34;44.61;101149.56;5059643;28;45453;-60
2022/03/08 00:35:24;;;;;;;;;42.50;35.25;;;;;4.21;44.11;101128.81;5043151;28;45443;-61
2022/03/08 00:37:51;;;;;;;;;49.75;43.50;;;;;4.26;44.83;101151.50;5043629;28;45370;-61
2022/03/08 00:40:19;;;;;;;;;46.25;41.50;;;;;4.25;44.64;101159.44;5024292;28;45241;-59
2022/03/08 00:42:45;;;;;;;;;42.00;36.75;;;;;4.19;44.85;101151.69;5048968;28;45572;-60
2022/03/08 00:45:11;;;;;;;;;39.25;34.75;;;;;4.17;44.96;101161.34;5051595;28;45245;-60
2022/03/08 00:47:39;;;;;;;;;42.75;37.50;;;;;4.08;44.77;101141.38;5055412;28;45398;-60
2022/03/08 00:50:07;;;;;;;;;47.75;36.25;;;;;4.15;45.35;101169.28;5068481;28;45768;-63
2022/03/08 00:52:33;;;;;;;;;33.00;32.00;;;;;4.08;44.86;101149.25;5063520;28;45314;-59
2022/03/08 00:54:58;;;;;;;;;50.50;41.75;;;;;4.09;44.87;101149.22;5067969;28;46032;-61
2022/03/08 00:57:24;;;;;;;;;41.25;35.75;;;;;3.86;45.04;101117.22;5053378;28;45364;-61
2022/03/08 00:59:49;;;;;;;;;40.75;37.00;;;;;3.94;45.59;101128.50;5061618;28;45455;-58
2022/03/08 01:02:15;;;;;;;;;44.75;41.25;;;;;3.88;45.37;101138.25;5052866;28;45257;-60
2022/03/08 01:04:40;;;;;;;;;49.50;40.00;;;;;3.84;45.61;101126.94;5028529;28;46166;-60
2022/03/08 01:07:07;;;;;;;;;46.00;32.50;;;;;3.90;45.76;101125.94;5058531;28;45379;-59
2022/03/08 01:09:34;;;;;;;;;57.00;40.00;;;;;3.93;45.86;101129.38;5051934;28;45363;-61
2022/03/08 01:12:00;;;;;;;;;59.25;43.00;;;;;3.88;45.44;101136.47;5069960;28;45383;-60
2022/03/08 01:14:25;;;;;;;;;40.00;36.50;;;;;3.90;46.00;101137.31;5062667;28;46097;-59
2022/03/08 01:16:51;;;;;;;;;44.25;41.25;;;;;3.90;46.01;101132.06;5070648;28;45338;-59
2022/03/08 01:19:16;;;;;;;;;43.75;39.75;;;;;3.92;45.87;101140.81;5072470;28;45908;-60
2022/03/08 01:21:42;;;;;;;;;45.75;35.00;;;;;3.82;45.87;101123.47;5071760;28;45374;-60
2022/03/08 01:24:08;;;;;;;;;39.75;36.25;;;;;3.83;46.04;101119.94;5066412;28;45322;-60
2022/03/08 01:26:33;;;;;;;;;42.75;37.25;;;;;3.87;45.92;101132.13;5073523;28;45283;-60
2022/03/08 01:28:59;;;;;;;;;43.25;37.00;;;;;3.80;46.04;101120.88;5065555;28;44796;-61
2022/03/08 01:31:25;;;;;;;;;42.75;37.75;;;;;3.83;46.06;101130.47;5068380;28;45321;-59
2022/03/08 01:33:51;;;;;;;;;41.50;29.00;;;;;3.79;46.41;101128.78;5066078;28;45371;-65
2022/03/08 01:36:17;;;;;;;;;45.25;34.50;;;;;3.79;46.26;101128.78;5064159;28;45420;-61
2022/03/08 01:38:43;;;;;;;;;45.00;38.75;;;;;3.80;45.87;101130.53;5070759;28;45395;-60
2022/03/08 01:41:08;;;;;;;;;47.25;38.25;;;;;3.74;46.04;101115.72;5046953;28;45318;-60
2022/03/08 01:43:34;;;;;;;;;45.25;37.75;;;;;3.73;45.75;101113.13;5063314;28;47024;-60
2022/03/08 01:45:59;;;;;;;;;50.00;39.25;;;;;3.76;45.85;101118.31;5061792;28;45772;-60
2022/03/08 01:48:25;;;;;;;;;56.00;40.00;;;;;3.76;46.16;101123.56;5061859;28;45653;-58
2022/03/08 01:50:51;;;;;;;;;45.75;37.75;;;;;3.71;46.14;101110.53;5063366;28;45418;-59
2022/03/08 01:53:16;;;;;;;;;39.00;32.50;;;;;3.80;46.07;101123.50;5061839;28;45412;-58
2022/03/08 01:55:42;;;;;;;;;50.50;45.00;;;;;3.79;46.20;101123.53;5063138;28;45318;-64
2022/03/08 01:58:07;;;;;;;;;42.50;41.00;;;;;3.51;46.27;101074.06;5062978;28;45362;-62
2022/03/08 02:00:33;;;;;;;;;55.00;36.75;;;;;3.47;46.26;101064.50;5064245;28;45378;-61
2022/03/08 02:02:59;;;;;;;;;45.00;33.75;;;;;3.76;46.02;101113.03;5064174;28;45437;-61
2022/03/08 02:05:26;;;;;;;;;47.75;38.75;;;;;3.80;46.07;101120.88;5067715;28;45268;-64
2022/03/08 02:07:52;;;;;;;;;51.50;38.50;;;;;3.68;45.82;101093.94;5065224;28;45378;-62
2022/03/08 02:10:18;;;;;;;;;50.00;43.75;;;;;3.79;46.12;101113.88;5031901;28;45873;-62
2022/03/08 02:12:43;;;;;;;;;38.50;36.25;;;;;3.81;46.15;101113.84;5042299;28;45395;-61
2022/03/08 02:15:18;;;;;;;;;46.00;36.25;;;;;3.78;46.00;101112.16;5061347;28;45652;-61
2022/03/08 02:17:44;;;;;;;;;37.25;34.50;;;;;3.72;46.56;101100.88;5061853;28;45869;-61
2022/03/08 02:20:15;;;;;;;;;46.50;41.00;;;;;3.79;46.09;101118.28;5065114;28;45433;-61
2022/03/08 02:22:42;;;;;;;;;35.25;30.75;;;;;3.76;46.27;101099.88;5076935;28;46452;-61
2022/03/08 02:25:08;;;;;;;;;42.00;35.50;;;;;3.76;45.93;101097.25;5076123;28;45910;-62
2022/03/08 02:27:33;;;;;;;;;51.75;40.25;;;;;3.69;46.26;101085.16;5066450;28;45485;-60
2022/03/08 02:29:59;;;;;;;;;28.00;23.00;;;;;3.76;46.34;101095.50;5062191;28;45494;-61
2022/03/08 02:32:25;;;;;;;;;36.50;32.75;;;;;3.76;46.19;101094.63;5059184;28;45421;-60
2022/03/08 02:34:50;;;;;;;;;43.75;39.50;;;;;3.80;46.13;101096.31;5057670;28;45311;-60
2022/03/08 02:37:16;;;;;;;;;45.00;37.75;;;;;3.68;46.04;101078.16;5058885;28;45560;-60
2022/03/08 02:39:42;;;;;;;;;35.25;25.75;;;;;3.81;46.68;101095.44;5060031;28;45600;-60
2022/03/08 02:42:08;;;;;;;;;40.75;38.00;;;;;3.74;46.70;101081.50;5059745;28;45514;-61
2022/03/08 02:44:34;;;;;;;;;58.50;40.75;;;;;3.76;46.24;101076.22;5027739;28;45378;-61
2022/03/08 02:47:04;;;;;;;;;40.75;37.75;;;;;3.78;46.25;101092.88;5026383;28;45348;-61
2022/03/08 02:49:31;;;;;;;;;45.50;37.25;;;;;3.74;46.16;101081.50;5054736;28;45490;-60
2022/03/08 02:51:57;;;;;;;;;46.50;36.25;;;;;3.71;46.25;101072.81;5065748;28;45186;-60
2022/03/08 02:54:23;;;;;;;;;53.50;37.25;;;;;3.82;46.20;101078.75;5057132;28;44809;-60
2022/03/08 02:56:48;;;;;;;;;45.50;41.00;;;;;3.69;45.99;101050.94;5067392;28;45358;-59
2022/03/08 02:59:22;;;;;;;;;52.25;42.00;;;;;3.80;46.30;101073.50;5066851;28;44860;-60
2022/03/08 03:01:48;;;;;;;;;47.50;41.25;;;;;3.80;46.29;101073.50;5043720;28;46259;-60
2022/03/08 03:04:13;;;;;;;;;10.75;1.25;;;;;3.81;45.87;101071.75;5058702;28;45408;-60
2022/03/08 03:06:39;;;;;;;;;47.50;30.00;;;;;3.76;46.25;101056.03;5057684;28;45450;-61
2022/03/08 03:09:05;;;;;;;;;45.00;39.50;;;;;3.81;46.22;101074.38;5056525;28;45355;-62
2022/03/08 03:11:30;;;;;;;;;49.25;40.00;;;;;3.70;46.08;101050.91;5052301;28;46172;-63
2022/03/08 03:13:56;;;;;;;;;48.00;38.50;;;;;3.72;46.39;101053.50;5069361;28;45318;-61
2022/03/08 03:16:22;;;;;;;;;52.25;37.25;;;;;3.73;46.36;101052.59;5070717;28;45436;-60
2022/03/08 03:18:48;;;;;;;;;45.75;39.25;;;;;3.77;46.52;101070.06;5055338;28;45441;-60
2022/03/08 03:21:13;;;;;;;;;36.00;27.75;;;;;3.68;46.20;101050.09;5047173;28;47294;-60
2022/03/08 03:23:38;;;;;;;;;49.00;39.75;;;;;3.69;46.37;101051.81;5065026;28;45478;-61
2022/03/08 03:26:04;;;;;;;;;48.00;38.50;;;;;3.69;46.59;101040.44;5066728;28;45467;-60
2022/03/08 03:28:29;;;;;;;;;40.75;36.25;;;;;3.71;46.46;101038.63;5057154;28;45545;-62
2022/03/08 03:30:58;;;;;;;;;44.50;33.25;;;;;3.71;46.35;101036.00;5062094;28;45641;-60
2022/03/08 03:33:23;;;;;;;;;49.25;40.50;;;;;3.72;46.04;101045.63;5065457;28;45511;-62
2022/03/08 03:35:48;;;;;;;;;42.50;40.00;;;;;3.76;46.41;101055.16;5059505;28;45275;-60
2022/03/08 03:38:14;;;;;;;;;42.00;35.25;;;;;3.75;46.43;101045.56;5060379;28;45358;-60
2022/03/08 03:40:40;;;;;;;;;42.50;36.75;;;;;3.53;46.49;101006.56;5062619;28;45386;-61
2022/03/08 03:43:05;;;;;;;;;48.50;38.75;;;;;3.75;46.45;101040.28;5048019;28;45371;-60
2022/03/08 03:45:31;;;;;;;;;44.75;41.50;;;;;3.75;46.60;101040.28;5070003;28;44709;-60
2022/03/08 03:47:58;;;;;;;;;45.00;29.25;;;;;3.63;46.54;101027.38;5069657;28;45245;-61
2022/03/08 03:50:24;;;;;;;;;38.75;35.00;;;;;3.58;46.62;101016.09;5067830;28;46273;-61
2022/03/08 03:52:49;;;;;;;;;44.25;37.25;;;;;3.75;46.70;101040.28;5047717;28;45286;-60
2022/03/08 03:55:15;;;;;;;;;27.75;24.25;;;;;3.74;47.01;101041.19;5068576;28;44845;-60
2022/03/08 03:57:41;;;;;;;;;38.75;38.50;;;;;3.74;46.78;101041.19;5053700;28;45474;-61
2022/03/08 04:00:09;;;;;;;;;40.50;38.00;;;;;3.72;46.85;101043.00;5065863;28;46316;-60
2022/03/08 04:02:38;;;;;;;;;43.00;37.50;;;;;3.80;46.91;101046.34;5062792;28;45427;-60
2022/03/08 04:05:04;;;;;;;;;42.00;37.00;;;;;3.69;46.95;101032.53;5064033;28;45389;-60
2022/03/08 04:07:29;;;;;;;;;45.75;39.00;;;;;3.74;47.08;101049.09;5069211;28;45315;-62
2022/03/08 04:09:55;;;;;;;;;56.75;43.75;;;;;3.69;46.89;101054.44;5056817;28;45327;-63
2022/03/08 04:12:20;;;;;;;;;52.25;41.00;;;;;3.61;46.84;101032.69;5064192;28;45350;-60
2022/03/08 04:14:46;;;;;;;;;47.00;38.25;;;;;3.62;46.87;101042.31;5045220;28;45481;-61
2022/03/08 04:17:11;;;;;;;;;45.50;40.50;;;;;3.42;46.54;101005.91;5047152;28;45326;-62
2022/03/08 04:19:37;;;;;;;;;43.75;37.00;;;;;3.49;47.27;101036.41;5047083;28;46689;-60
2022/03/08 04:22:02;;;;;;;;;42.75;32.00;;;;;3.27;47.01;100997.47;5068050;28;45228;-62
2022/03/08 04:24:32;;;;;;;;;45.25;39.75;;;;;3.58;47.42;101047.66;5050374;28;45376;-61
2022/03/08 04:26:58;;;;;;;;;52.25;42.50;;;;;3.57;47.29;101044.16;5068968;28;45511;-63
2022/03/08 04:29:27;;;;;;;;;48.75;38.50;;;;;3.51;46.83;101028.50;5065884;28;45450;-60
2022/03/08 04:31:52;;;;;;;;;47.25;42.25;;;;;3.54;47.18;101039.84;5064557;28;45375;-60
2022/03/08 04:34:18;;;;;;;;;35.75;32.50;;;;;3.52;47.41;101036.38;5066704;28;45251;-64
2022/03/08 04:36:44;;;;;;;;;36.75;29.00;;;;;3.45;47.54;101034.75;5064500;28;45639;-60
2022/03/08 04:39:10;;;;;;;;;47.25;39.00;;;;;3.44;47.41;101027.78;5044633;28;46226;-65
2022/03/08 04:41:36;;;;;;;;;39.25;34.25;;;;;3.39;47.24;101029.63;5062234;28;45349;-59
2022/03/08 04:44:01;;;;;;;;;47.75;37.75;;;;;3.33;47.43;101029.75;5062634;28;45369;-60
2022/03/08 04:46:27;;;;;;;;;36.25;29.75;;;;;3.26;47.71;101007.13;5062892;28;45592;-61
2022/03/08 04:48:55;;;;;;;;;30.75;25.25;;;;;3.39;47.36;101034.03;5061459;28;45765;-60
2022/03/08 04:51:21;;;;;;;;;42.25;37.75;;;;;3.40;47.23;101031.38;5061640;28;45508;-61
2022/03/08 04:53:46;;;;;;;;;45.00;28.75;;;;;3.35;47.35;101029.72;5063111;28;45491;-61
2022/03/08 04:56:15;;;;;;;;;44.25;36.50;;;;;3.35;47.41;101024.44;5048060;28;45524;-60
2022/03/08 04:58:40;;;;;;;;;45.50;40.25;;;;;3.25;47.82;101021.13;5060209;28;45246;-62
2022/03/08 05:01:06;;;;;;;;;47.50;41.25;;;;;3.13;47.86;100995.09;5063823;28;45529;-62
2022/03/08 05:03:34;;;;;;;;;42.75;36.25;;;;;3.32;47.53;101030.63;5071809;28;45399;-61
2022/03/08 05:06:00;;;;;;;;;41.75;36.75;;;;;3.28;47.69;101015.84;5071346;28;45429;-61
2022/03/08 05:08:25;;;;;;;;;58.00;46.50;;;;;3.21;47.75;101006.31;5065028;28;46078;-61
2022/03/08 05:10:51;;;;;;;;;38.75;35.25;;;;;3.23;47.69;101009.78;5022360;28;45826;-60
2022/03/08 05:13:17;;;;;;;;;47.00;42.75;;;;;3.33;47.79;101023.63;5049011;28;45383;-60
2022/03/08 05:15:42;;;;;;;;;39.50;35.00;;;;;3.12;47.78;100993.34;5051225;28;45548;-60
2022/03/08 05:18:07;;;;;;;;;54.00;39.50;;;;;3.34;48.01;101020.94;5064400;28;46932;-60
2022/03/08 05:20:33;;;;;;;;;43.75;39.00;;;;;3.22;47.61;101008.03;5062346;28;45379;-61
2022/03/08 05:23:00;;;;;;;;;38.25;29.75;;;;;3.23;47.61;100996.63;5062299;28;46375;-61
2022/03/08 05:25:28;;;;;;;;;41.50;34.25;;;;;3.29;47.89;101017.56;5044018;28;45541;-61
2022/03/08 05:27:54;;;;;;;;;56.50;39.75;;;;;3.26;48.28;101004.47;5038992;28;48154;-60
2022/03/08 05:30:22;;;;;;;;;44.75;38.25;;;;;3.35;47.99;101022.69;5051559;28;45264;-61
2022/03/08 05:32:47;;;;;;;;;45.25;37.25;;;;;3.30;47.66;101014.03;5062303;28;45283;-63
2022/03/08 05:35:13;;;;;;;;;49.00;38.25;;;;;3.34;48.31;101031.47;5062064;28;45322;-59
2022/03/08 05:37:38;;;;;;;;;48.25;42.00;;;;;3.37;48.13;101014.75;5056738;28;45381;-60
2022/03/08 05:40:06;;;;;;;;;43.25;35.50;;;;;3.39;48.14;101013.00;5060973;28;45256;-61
2022/03/08 05:42:32;;;;;;;;;38.25;34.25;;;;;3.16;48.09;100979.28;5058947;28;45235;-61
2022/03/08 05:44:57;;;;;;;;;49.75;41.75;;;;;3.07;47.74;100948.78;5059267;28;46660;-60
2022/03/08 05:47:23;;;;;;;;;45.75;43.00;;;;;3.27;48.39;100993.06;5059542;28;45799;-64
2022/03/08 05:49:48;;;;;;;;;42.25;36.00;;;;;3.31;48.34;100997.38;5056087;28;45421;-61
2022/03/08 05:52:14;;;;;;;;;46.25;32.00;;;;;3.36;48.22;101013.91;5057549;28;45549;-60
2022/03/08 05:54:39;;;;;;;;;44.00;36.00;;;;;3.36;48.23;101013.91;5057365;28;45395;-61
2022/03/08 05:57:10;;;;;;;;;44.00;32.50;;;;;3.39;48.10;101018.25;5058790;28;46131;-60
2022/03/08 05:59:39;;;;;;;;;45.50;39.00;;;;;3.39;48.08;101013.88;5060798;28;45247;-67
2022/03/08 06:02:10;;;;;;;;;41.00;39.25;;;;;3.32;48.29;101004.34;5066065;28;44820;-62
2022/03/08 06:04:35;;;;;;;;;50.25;38.75;;;;;3.37;48.36;101004.25;5067469;28;45457;-61
2022/03/08 06:07:01;;;;;;;;;49.75;41.00;;;;;3.33;47.98;100998.19;5062117;28;45766;-63
2022/03/08 06:09:26;;;;;;;;;49.75;42.50;;;;;3.40;48.43;101023.47;5041372;28;45395;-69
2022/03/08 06:11:52;;;;;;;;;47.25;44.00;;;;;3.36;48.24;101024.41;5058914;28;45422;-60
2022/03/08 06:14:18;;;;;;;;;40.75;35.75;;;;;3.42;48.41;101033.97;5058688;28;45473;-61
2022/03/08 06:16:43;;;;;;;;;38.50;37.25;;;;;3.39;48.60;101024.38;5065524;28;45321;-60
2022/03/08 06:19:09;;;;;;;;;57.25;46.00;;;;;3.42;48.24;101023.44;5064951;28;45420;-61
2022/03/08 06:21:34;;;;;;;;;38.25;33.50;;;;;3.37;47.90;101034.03;5074578;28;44725;-65
2022/03/08 06:24:00;;;;;;;;;49.50;39.25;;;;;3.28;48.21;101020.22;5069640;28;45366;-63
2022/03/08 06:26:26;;;;;;;;;45.25;40.00;;;;;3.31;47.80;101023.66;5042501;28;46036;-62
2022/03/08 06:28:51;;;;;;;;;47.50;41.25;;;;;3.32;48.18;101038.53;5059450;28;45500;-62
2022/03/08 06:31:16;;;;;;;;;37.00;31.00;;;;;3.30;48.02;101023.69;5064121;28;45476;-63
2022/03/08 06:33:42;;;;;;;;;37.50;32.00;;;;;3.35;48.15;101034.97;5071753;28;45834;-62
2022/03/08 06:36:08;;;;;;;;;41.50;38.00;;;;;3.33;48.06;101027.09;5051216;28;46872;-62
2022/03/08 06:38:34;;;;;;;;;48.50;42.75;;;;;3.36;47.91;101036.69;5054627;28;45291;-62
2022/03/08 06:40:59;;;;;;;;;47.75;39.25;;;;;3.35;47.96;101033.19;5072347;28;44813;-63
2022/03/08 06:43:25;;;;;;;;;52.25;39.75;;;;;3.37;48.14;101031.41;5071066;28;45217;-63
2022/03/08 06:45:50;;;;;;;;;43.75;34.75;;;;;3.37;48.30;101034.03;5074521;28;45152;-62
2022/03/08 06:48:16;;;;;;;;;50.25;43.25;;;;;3.39;48.21;101040.16;5081886;28;45691;-61
2022/03/08 06:50:41;;;;;;;;;45.75;40.50;;;;;3.39;48.20;101028.78;5060594;28;45394;-61
2022/03/08 06:53:07;;;;;;;;;54.50;44.00;;;;;3.42;48.15;101040.09;5059224;28;45408;-64
2022/03/08 06:55:32;;;;;;;;;49.50;45.25;;;;;3.39;48.19;101031.41;5053580;28;46072;-62
2022/03/08 06:57:58;;;;;;;;;53.25;40.25;;;;;3.42;48.28;101029.56;5039790;28;45422;-61
2022/03/08 07:00:23;;;;;;;;;48.75;43.25;;;;;3.41;47.83;101026.97;5058353;28;45375;-63
2022/03/08 07:02:49;;;;;;;;;62.00;47.25;;;;;3.48;48.39;101039.94;5058704;28;45353;-64
2022/03/08 07:05:14;;;;;;;;;55.75;44.25;;;;;3.53;48.57;101032.84;5040466;28;47911;-64
2022/03/08 07:07:42;;;;;;;;;41.75;39.25;;;;;3.53;48.22;101022.34;5063476;28;45378;-60
2022/03/08 07:10:08;;;;;;;;;57.75;40.25;;;;;3.67;47.81;101031.72;5055436;28;45659;-62
2022/03/08 07:12:34;;;;;;;;;50.75;41.75;;;;;3.70;47.58;101034.28;5061965;28;45185;-63
2022/03/08 07:15:01;;;;;;;;;45.50;34.25;;;;;3.74;47.75;101030.66;5063839;28;46111;-63
2022/03/08 07:17:26;;;;;;;;;47.25;42.75;;;;;3.61;47.65;101002.88;5061634;28;45470;-59
2022/03/08 07:19:52;;;;;;;;;61.00;48.25;;;;;3.79;47.66;101034.09;5062985;28;45720;-62
2022/03/08 07:22:17;;;;;;;;;53.25;47.50;;;;;3.75;47.58;101024.50;5065863;28;45327;-62
2022/03/08 07:24:43;;;;;;;;;49.00;38.75;;;;;3.68;47.57;101009.75;5064709;28;45496;-63
2022/03/08 07:27:09;;;;;;;;;49.75;42.00;;;;;3.87;47.42;101037.41;5065660;28;45548;-65
2022/03/08 07:29:36;;;;;;;;;61.00;42.00;;;;;3.83;47.53;101027.84;5065754;28;45395;-60
2022/03/08 07:32:02;;;;;;;;;50.75;44.25;;;;;3.89;47.32;101040.84;5070275;28;45765;-61
2022/03/08 07:34:28;;;;;;;;;52.75;46.75;;;;;3.93;47.19;101042.53;5055275;28;47566;-62
2022/03/08 07:36:54;;;;;;;;;48.50;44.25;;;;;3.93;47.27;101050.44;5070207;28;45271;-65
2022/03/08 07:39:19;;;;;;;;;59.00;44.00;;;;;3.98;46.96;101055.59;5066294;28;45330;-62
2022/03/08 07:41:45;;;;;;;;;50.75;44.25;;;;;4.02;47.33;101058.13;5069115;28;45521;-64
2022/03/08 07:44:16;;;;;;;;;47.00;38.50;;;;;4.01;46.64;101051.13;5065945;28;46409;-61
2022/03/08 07:46:42;;;;;;;;;54.75;38.50;;;;;4.09;46.85;101062.38;5059807;28;45406;-60
2022/03/08 07:49:10;;;;;;;;;52.75;43.50;;;;;4.07;46.29;101068.56;5065699;28;45519;-62
2022/03/08 07:51:39;;;;;;;;;50.00;42.75;;;;;4.08;46.67;101065.91;5079887;28;45585;-63
2022/03/08 07:54:04;;;;;;;;;49.50;43.50;;;;;4.07;46.67;101072.06;5065757;28;46279;-61
2022/03/08 07:56:30;;;;;;;;;59.00;44.50;;;;;4.10;46.85;101068.50;5040942;28;45430;-65
2022/03/08 07:58:56;;;;;;;;;63.50;46.25;;;;;4.05;47.00;101057.22;5046568;28;45346;-61
2022/03/08 08:01:21;;;;;;;;;59.25;45.00;;;;;4.17;46.97;101070.09;5066901;28;45309;-62
2022/03/08 08:03:52;;;;;;;;;59.75;46.25;;;;;4.19;46.56;101070.94;5078196;28;44961;-62
2022/03/08 08:06:18;;;;;;;;;57.00;43.50;;;;;4.14;46.74;101065.75;5071307;28;45147;-62
2022/03/08 08:08:44;;;;;;;;;58.75;44.25;;;;;4.13;46.62;101061.38;5089168;28;44840;-60
2022/03/08 08:11:09;;;;;;;;;59.25;46.25;;;;;3.93;46.88;101008.34;5060015;28;45280;-62
2022/03/08 08:13:38;;;;;;;;;54.50;47.75;;;;;4.20;47.00;101045.47;5062469;28;45534;-62
2022/03/08 08:16:04;;;;;;;;;63.25;47.50;;;;;4.31;46.57;101072.44;5072269;28;45251;-64
2022/03/08 08:18:29;;;;;;;;;55.50;46.00;;;;;4.22;46.63;101046.28;5061697;28;45795;-63
2022/03/08 08:20:55;;;;;;;;;59.50;43.75;;;;;4.39;46.40;101059.94;5063341;28;45220;-62
2022/03/08 08:23:21;;;;;;;;;62.00;48.50;;;;;4.26;46.11;101032.16;5066775;28;45347;-63
2022/03/08 08:25:46;;;;;;;;;65.50;46.00;;;;;4.36;46.84;101062.66;5056602;28;45211;-65
2022/03/08 08:28:12;;;;;;;;;63.75;43.75;;;;;4.25;46.50;101049.72;5062516;28;45263;-68
2022/03/08 08:30:38;;;;;;;;;48.75;42.25;;;;;4.27;46.74;101034.75;5047252;28;45302;-62
2022/03/08 08:33:03;;;;;;;;;53.25;43.75;;;;;4.44;46.51;101064.22;5056998;28;46486;-63
2022/03/08 08:35:30;;;;;;;;;58.25;44.50;;;;;4.30;46.38;101039.09;5074126;28;45401;-62
2022/03/08 08:37:58;;;;;;;;;53.75;46.50;;;;;4.48;46.29;101070.25;5075180;28;45283;-62
2022/03/08 08:40:24;;;;;;;;;49.00;45.25;;;;;4.39;46.50;101054.66;5072487;28;45244;-70
2022/03/08 08:42:52;;;;;;;;;61.25;44.00;;;;;4.45;46.30;101062.44;5057688;28;45364;-64
2022/03/08 08:45:18;;;;;;;;;56.75;48.75;;;;;4.58;46.39;101078.81;5082456;28;45743;-63
2022/03/08 08:47:44;;;;;;;;;59.00;47.25;;;;;4.51;46.20;101062.28;5083040;28;44852;-63
2022/03/08 08:50:10;;;;;;;;;46.75;40.25;;;;;4.70;46.38;101084.66;5083237;28;44815;-62
2022/03/08 08:52:35;;;;;;;;;48.25;42.50;;;;;4.71;46.10;101073.22;5085828;28;45289;-62
2022/03/08 08:55:05;;;;;;;;;66.25;49.00;;;;;4.71;46.28;101062.69;5081788;28;45275;-61
2022/03/08 08:57:30;;;;;;;;;55.00;47.00;;;;;4.88;46.11;101064.88;5055754;28;45328;-63
2022/03/08 08:59:56;;;;;;;;;62.25;46.00;;;;;5.15;46.30;101071.22;5064571;28;45261;-61
2022/03/08 09:02:21;;;;;;;;;56.00;46.50;;;;;5.39;45.19;101072.34;5061666;28;45220;-62
2022/03/08 09:04:47;;;;;;;;;56.50;45.75;;;;;5.51;44.94;101052.69;5042521;28;45431;-61
2022/03/08 09:07:12;;;;;;;;;57.50;49.00;;;;;5.52;44.35;101025.41;5045208;28;45362;-63
2022/03/08 09:09:38;;;;;;;;;58.25;47.75;;;;;5.94;44.76;101072.59;5066677;28;45415;-62
2022/03/08 09:12:04;;;;;;;;;58.25;45.50;;;;;5.88;43.90;101029.63;5071057;28;45585;-62
2022/03/08 09:14:32;;;;;;;;;65.00;50.75;;;;;6.29;44.30;101069.78;5056590;28;45356;-62
2022/03/08 09:17:00;;;;;;;;;48.50;42.75;;;;;6.44;42.38;101061.38;5066068;28;45467;-63
2022/03/08 09:19:26;;;;;;;;;52.00;43.75;;;;;6.57;43.25;101064.47;5064398;28;45280;-62
2022/03/08 09:21:52;;;;;;;;;61.00;48.50;;;;;6.67;42.38;101054.50;5069182;28;45227;-65
2022/03/08 09:24:17;;;;;;;;;57.25;48.00;;;;;6.81;42.43;101062.84;5050606;28;45322;-60
2022/03/08 09:26:42;;;;;;;;;61.00;48.00;;;;;6.94;42.09;101065.94;5065230;28;45284;-66
2022/03/08 09:29:08;;;;;;;;;63.00;47.00;;;;;7.03;41.82;101058.56;5065476;28;45400;-62
2022/03/08 09:31:33;;;;;;;;;54.75;45.75;;;;;7.18;42.09;101051.00;5044342;28;47619;-64
2022/03/08 09:33:59;;;;;;;;;63.75;51.00;;;;;7.39;41.96;101055.53;5061392;28;45466;-62
2022/03/08 09:36:24;;;;;;;;;47.50;44.75;;;;;7.64;40.89;101050.22;5063378;28;45406;-61
2022/03/08 09:38:50;;;;;;;;;50.25;45.75;;;;;7.76;40.89;101054.22;5071153;28;45394;-62
2022/03/08 09:41:19;;;;;;;;;63.50;50.00;;;;;7.85;40.47;101038.84;5066701;28;46228;-63
2022/03/08 09:43:45;;;;;;;;;64.75;46.50;;;;;8.06;40.52;101045.09;5065488;28;45355;-63
2022/03/08 09:46:14;;;;;;;;;64.75;47.25;;;;;8.09;40.04;101031.75;5072741;28;45244;-63
2022/03/08 09:48:40;;;;;;;;;57.50;47.00;;;;;8.18;40.28;101028.72;5051265;28;45470;-67
2022/03/08 09:51:05;;;;;;;;;55.00;45.00;;;;;8.36;39.62;101018.38;5068740;28;45430;-63
2022/03/08 09:53:32;;;;;;;;;54.75;45.25;;;;;8.48;39.65;101028.50;5062431;28;45461;-65
2022/03/08 09:55:59;;;;;;;;;53.75;44.00;;;;;8.47;39.19;101032.94;5042751;28;45794;-62
2022/03/08 09:58:25;;;;;;;;;64.00;50.50;;;;;8.57;39.46;101044.84;5058835;28;45594;-63
2022/03/08 10:00:53;;;;;;;;;45.50;39.75;;;;;8.57;39.49;101039.56;5060652;28;46085;-64
2022/03/08 10:03:39;;;;;;;;;60.25;48.50;;;;;8.55;40.19;101036.13;5063351;28;45772;-61
2022/03/08 10:06:05;;;;;;;;;63.25;49.00;;;;;8.65;39.68;101028.66;5046199;28;45431;-62
2022/03/08 10:08:37;;;;;;;;;61.00;47.25;;;;;8.63;39.78;101019.91;5060041;28;45885;-67
2022/03/08 10:11:05;;;;;;;;;54.25;43.00;;;;;8.64;40.06;101013.69;5060211;28;45522;-63
2022/03/08 10:13:35;;;;;;;;;57.75;45.50;;;;;8.63;39.79;101033.16;5064304;28;45448;-65
2022/03/08 10:16:24;;;;;;;;;64.00;49.00;;;;;8.56;40.34;101016.63;5060402;28;45398;-63
2022/03/08 10:18:53;;;;;;;;;57.75;47.25;;;;;8.60;39.44;101028.00;5041044;28;45478;-60
2022/03/08 10:21:33;;;;;;;;;59.00;45.25;;;;;8.56;39.96;101032.53;5060118;28;45429;-64
2022/03/08 10:24:01;;;;;;;;;56.50;45.50;;;;;8.60;40.57;101027.13;5059849;28;45425;-68
2022/03/08 10:26:33;;;;;;;;;58.50;47.25;;;;;8.60;40.04;101022.69;5061094;28;45405;-63
2022/03/08 10:29:03;;;;;;;;;61.75;46.25;;;;;8.60;40.63;101004.13;5061262;28;45355;-63
2022/03/08 10:31:31;;;;;;;;;63.75;47.50;;;;;8.75;40.07;101014.09;5058177;28;47631;-64
2022/03/08 10:34:09;;;;;;;;;62.00;45.75;;;;;8.73;39.58;101009.78;5058641;28;45428;-61
2022/03/08 10:36:36;;;;;;;;;57.75;48.25;;;;;8.73;39.63;101013.31;5059956;28;45500;-63
2022/03/08 10:39:12;;;;;;;;;54.75;43.75;;;;;8.76;40.02;101013.16;5063570;28;45801;-63
2022/03/08 10:41:56;;;;;;;;;60.75;51.25;;;;;8.83;39.88;101009.31;5066059;28;46865;-62
2022/03/08 10:44:37;;;;;;;;;53.50;47.75;;;;;8.89;40.17;100999.41;5073067;28;45477;-63
2022/03/08 10:47:11;;;;;;;;;61.00;48.00;;;;;9.05;40.38;101003.09;5072034;28;45655;-65
2022/03/08 10:49:49;;;;;;;;;49.25;40.75;;;;;9.13;39.59;101006.31;5048108;28;45322;-63
2022/03/08 10:52:14;;;;;;;;;66.50;50.25;;;;;9.18;39.98;101006.09;5060283;28;45473;-64
2022/03/08 10:54:40;;;;;;;;;58.00;47.25;;;;;9.23;39.17;101002.28;5057708;28;45386;-63
2022/03/08 10:57:11;;;;;;;;;59.25;47.25;;;;;9.37;40.32;100999.03;5057819;28;45401;-63
2022/03/08 10:59:52;;;;;;;;;59.00;47.25;;;;;9.45;39.19;100987.16;5065802;28;45199;-62
2022/03/08 11:02:24;;;;;;;;;63.75;51.75;;;;;9.58;38.64;100995.41;5060072;28;45292;-65
2022/03/08 11:05:12;;;;;;;;;63.00;46.75;;;;;9.62;39.34;100977.53;5040265;28;45466;-62
2022/03/08 11:07:38;;;;;;;;;60.00;46.50;;;;;9.67;38.55;100975.56;5060769;28;45327;-61
2022/03/08 11:10:05;;;;;;;;;63.00;50.25;;;;;9.92;38.86;100985.91;5068596;28;45538;-63
2022/03/08 11:12:31;;;;;;;;;49.00;44.25;;;;;9.99;38.83;100982.88;5067496;28;46175;-66
2022/03/08 11:15:00;;;;;;;;;58.25;44.00;;;;;10.01;38.43;100981.00;5071454;28;45210;-62